Terminal Aerodrome Forecast
Issued by NWS

Home | Current Version | Previous Version | Text Only | Print | Product List | Glossary On
Versions: 1 2 3 4 5 6 7 8 9 10 11 12 13 14 15 16 17
000
FTUS43 KJKL 031253 AAA
TAFSME
TAF AMD
KSME 031253Z 0313/0412 00000KT 1SM BR BKN002
     FM031330 VRB05KT P6SM SCT050
     FM040600 00000KT 5SM BR FEW250
     FM041000 00000KT 1/2SM FG OVC002=

USA.gov is the U.S. government's official web portal to all federal, state and local government web resources and services.